createdAt,value
2019-01-28T18:38:03.682Z,26.50
2019-01-28T18:40:32.702Z,24.30
2019-01-28T18:43:00.949Z,31.10
2019-01-28T18:45:28.711Z,26.40
2019-01-28T18:47:56.483Z,24.40
2019-01-28T18:50:24.545Z,23.60
2019-01-28T18:52:52.432Z,23.20
2019-01-28T19:03:16.759Z,28.20
2019-01-28T19:05:53.641Z,23.90
2019-01-28T19:08:34.976Z,22.30
2019-01-28T19:38:08.896Z,22.30
2019-01-28T19:40:35.245Z,25.50
2019-01-28T19:43:01.589Z,22.60
2019-01-28T19:45:27.893Z,20.90
2019-01-28T19:47:54.102Z,20.10
2019-01-28T19:50:20.474Z,19.70
2019-01-28T19:52:46.686Z,19.50
2019-01-28T19:55:16.956Z,19.40
2019-01-28T19:57:43.159Z,19.40
2019-01-28T20:00:11.397Z,19.30
2019-01-28T20:02:37.718Z,19.30
2019-01-28T20:05:05.955Z,19.30
2019-01-28T20:07:32.285Z,19.30
2019-01-28T20:09:58.604Z,19.30
2019-01-28T20:12:24.789Z,19.30
2019-01-28T20:14:51.045Z,19.30
2019-01-28T20:17:17.270Z,19.30
2019-01-28T20:19:43.572Z,19.30
2019-01-28T20:22:09.933Z,19.30
2019-01-28T20:24:36.147Z,19.30
2019-01-28T20:27:02.590Z,19.30
2019-01-28T20:29:28.826Z,19.30
2019-01-28T20:31:55.075Z,19.30
2019-01-28T20:34:21.476Z,19.30
2019-01-28T20:36:47.638Z,19.30
2019-01-28T20:39:13.852Z,19.30
2019-01-28T20:41:40.117Z,19.30
2019-01-28T20:44:06.428Z,19.30
2019-01-28T20:46:32.612Z,19.30
2019-01-28T20:48:58.912Z,19.30
2019-01-28T20:51:32.254Z,19.30
2019-01-28T20:53:53.289Z,19.30
2019-01-28T20:56:19.583Z,19.30
2019-01-28T20:58:45.871Z,19.30
2019-01-28T21:01:12.075Z,19.30
2019-01-28T21:03:38.346Z,19.30
2019-01-28T21:06:04.792Z,19.30
2019-01-28T21:08:31.057Z,19.30
2019-01-28T21:10:57.367Z,19.30
2019-01-28T21:13:23.700Z,19.30
2019-01-28T21:15:49.907Z,19.30
2019-01-28T21:18:16.300Z,19.30
2019-01-28T21:20:42.640Z,19.30
2019-01-28T21:23:08.852Z,19.30
2019-01-28T21:25:35.192Z,19.30
2019-01-28T22:38:36.555Z,25.60
2019-01-28T22:41:06.153Z,25.50
2019-01-28T22:43:34.017Z,23.60
2019-01-28T22:46:01.991Z,22.80
2019-01-28T22:48:30.371Z,22.50
2019-01-28T22:50:58.530Z,22.40
2019-01-28T22:53:29.781Z,22.40
2019-01-28T22:55:58.274Z,22.30
2019-01-28T22:58:26.536Z,22.30
2019-01-28T23:00:56.669Z,22.40
2019-01-28T23:03:26.748Z,22.40
2019-01-28T23:05:54.755Z,22.40
2019-01-28T23:08:24.212Z,22.40
2019-01-28T23:10:52.026Z,22.40
2019-01-28T23:13:20.127Z,22.50
2019-01-28T23:31:33.523Z,22.60
2019-01-28T23:34:01.389Z,23.00
2019-01-28T23:36:29.469Z,22.80
2019-01-28T23:38:59.485Z,22.70
2019-01-28T23:41:27.358Z,22.60
2019-01-28T23:43:55.313Z,22.60
2019-01-28T23:46:23.288Z,22.60
2019-01-28T23:48:51.155Z,22.60
2019-01-28T23:51:18.945Z,22.60
2019-01-28T23:53:47.249Z,22.60
2019-01-28T23:56:17.069Z,22.60
2019-01-28T23:58:44.974Z,22.70
